createdAt,value
2023-03-05T00:01:33.227Z,4.10
2023-03-05T00:05:36.126Z,4.10
2023-03-05T00:09:40.299Z,4.10
2023-03-05T00:13:43.388Z,4.10
2023-03-05T00:17:46.223Z,4.00
2023-03-05T00:21:49.056Z,4.00
2023-03-05T00:25:53.229Z,4.00
2023-03-05T00:29:56.041Z,4.00
2023-03-05T00:34:00.107Z,4.00
2023-03-05T00:38:02.942Z,4.00
2023-03-05T00:42:07.501Z,4.00
2023-03-05T00:46:10.317Z,4.00
2023-03-05T00:50:13.173Z,4.00
2023-03-05T00:54:15.985Z,4.00
2023-03-05T00:58:20.171Z,4.00
2023-03-05T01:02:22.983Z,4.00
2023-03-05T01:06:25.771Z,4.00
2023-03-05T01:10:29.165Z,4.00
2023-03-05T01:14:34.693Z,4.00
2023-03-05T01:18:38.287Z,4.00
2023-03-05T01:22:41.523Z,3.90
2023-03-05T01:26:44.697Z,3.90
2023-03-05T01:30:48.865Z,3.90
2023-03-05T01:34:51.661Z,3.90
2023-03-05T01:38:54.504Z,3.80
2023-03-05T01:42:58.383Z,3.90
2023-03-05T01:47:02.617Z,3.80
2023-03-05T01:51:05.780Z,3.80
2023-03-05T01:55:10.533Z,3.80
2023-03-05T01:59:13.761Z,3.80
2023-03-05T02:03:18.168Z,3.80
2023-03-05T02:07:21.135Z,3.80
2023-03-05T02:11:23.927Z,3.80
2023-03-05T02:15:26.761Z,3.80
2023-03-05T02:19:30.976Z,3.80
2023-03-05T02:23:36.749Z,3.80
2023-03-05T02:27:40.325Z,3.80
2023-03-05T02:31:43.234Z,3.80
2023-03-05T02:35:46.467Z,3.80
2023-03-05T02:39:50.663Z,3.80
2023-03-05T02:43:53.458Z,3.80
2023-03-05T02:47:56.279Z,3.80
2023-03-05T02:51:59.044Z,3.80
2023-03-05T02:56:03.258Z,3.80
2023-03-05T03:00:06.941Z,3.80
2023-03-05T03:04:09.790Z,3.80
2023-03-05T03:08:12.596Z,3.80
2023-03-05T03:12:16.701Z,3.80
2023-03-05T03:16:19.605Z,3.80
2023-03-05T03:20:22.559Z,3.80
2023-03-05T03:24:25.529Z,3.80
2023-03-05T03:28:29.700Z,3.80
2023-03-05T03:32:32.862Z,3.80
2023-03-05T03:36:35.778Z,3.90
2023-03-05T03:40:38.572Z,3.90
2023-03-05T03:44:42.708Z,3.90
2023-03-05T03:48:45.509Z,3.80
2023-03-05T03:52:48.315Z,3.90
2023-03-05T03:56:51.147Z,3.90
2023-03-05T04:00:55.299Z,3.90
2023-03-05T04:04:58.245Z,3.90
2023-03-05T04:09:01.357Z,3.90
2023-03-05T04:13:04.166Z,3.90
2023-03-05T04:17:08.310Z,3.90
2023-03-05T04:21:11.115Z,3.80
2023-03-05T04:25:13.926Z,3.80
2023-03-05T04:29:16.701Z,3.80
2023-03-05T04:33:20.977Z,3.80
2023-03-05T04:37:23.790Z,3.70
2023-03-05T04:41:26.584Z,3.70
2023-03-05T04:45:29.401Z,3.70
2023-03-05T04:49:33.620Z,3.70
2023-03-05T04:53:36.424Z,3.70
2023-03-05T04:57:39.244Z,3.70
2023-03-05T05:01:43.086Z,3.70
2023-03-05T05:05:47.288Z,3.70
2023-03-05T05:09:50.120Z,3.70
2023-03-05T05:13:52.939Z,3.70
2023-03-05T05:17:55.728Z,3.70
2023-03-05T05:21:59.891Z,3.80
2023-03-05T05:26:03.467Z,3.80
2023-03-05T05:30:07.699Z,3.80
2023-03-05T05:34:10.525Z,3.80
2023-03-05T05:38:14.710Z,3.70
2023-03-05T05:42:18.030Z,3.80
2023-03-05T05:46:21.231Z,3.70
2023-03-05T05:50:24.109Z,3.70
2023-03-05T05:54:28.920Z,3.80
2023-03-05T05:58:31.817Z,3.80
2023-03-05T06:02:34.722Z,3.80
2023-03-05T06:06:37.516Z,3.80
2023-03-05T06:10:41.667Z,3.70
2023-03-05T06:14:44.571Z,3.70
2023-03-05T06:18:47.425Z,3.80
2023-03-05T06:22:50.190Z,3.80
2023-03-05T06:26:54.385Z,3.80
2023-03-05T06:31:04.222Z,3.70
2023-03-05T06:35:07.699Z,3.70
2023-03-05T06:39:10.625Z,3.80
2023-03-05T06:43:14.757Z,3.70
2023-03-05T06:47:17.600Z,3.70
2023-03-05T06:51:21.567Z,3.70
2023-03-05T06:55:24.387Z,3.70
2023-03-05T06:59:28.590Z,3.70
2023-03-05T07:03:31.407Z,3.70
2023-03-05T07:07:34.396Z,3.70
2023-03-05T07:11:37.493Z,3.70
2023-03-05T07:15:43.498Z,3.70
2023-03-05T07:19:46.423Z,3.80
2023-03-05T07:23:49.492Z,3.80
2023-03-05T07:27:52.472Z,3.80
2023-03-05T07:31:56.898Z,3.80
2023-03-05T07:35:59.811Z,3.90
2023-03-05T07:40:02.673Z,3.90
2023-03-05T07:44:05.956Z,3.90
2023-03-05T07:48:13.416Z,3.90
2023-03-05T07:52:16.551Z,4.00
2023-03-05T07:56:22.225Z,4.00
2023-03-05T08:00:25.118Z,4.00
2023-03-05T08:04:31.896Z,4.10
2023-03-05T08:08:36.237Z,4.20
2023-03-05T08:12:39.075Z,4.20
2023-03-05T08:16:41.979Z,4.20
2023-03-05T08:20:46.137Z,4.30
2023-03-05T08:24:50.532Z,4.40
2023-03-05T08:28:53.366Z,4.60
2023-03-05T08:32:57.395Z,4.80
2023-03-05T08:37:01.650Z,5.00
2023-03-05T08:41:04.737Z,5.30
2023-03-05T08:45:09.230Z,5.40
2023-03-05T08:49:12.030Z,5.50
2023-03-05T08:53:16.326Z,5.50
2023-03-05T08:57:19.131Z,5.50
2023-03-05T09:01:22.666Z,5.40
2023-03-05T09:05:25.527Z,5.40
2023-03-05T09:09:32.513Z,5.30
2023-03-05T09:13:37.565Z,5.40
2023-03-05T09:17:42.414Z,5.70
2023-03-05T09:21:45.250Z,6.00
2023-03-05T09:25:49.859Z,6.30
2023-03-05T09:29:53.339Z,6.70
2023-03-05T09:33:56.223Z,7.10
2023-03-05T09:37:59.148Z,7.50
2023-03-05T09:42:13.025Z,7.70
2023-03-05T09:46:25.674Z,7.70
2023-03-05T09:50:35.908Z,7.60
2023-03-05T09:54:39.966Z,7.50
2023-03-05T09:58:45.234Z,7.30
2023-03-05T10:02:49.929Z,7.20
2023-03-05T10:06:57.389Z,7.20
2023-03-05T10:11:02.950Z,7.30
2023-03-05T10:15:10.437Z,7.50
2023-03-05T10:19:17.193Z,7.60
2023-03-05T10:23:41.477Z,7.80
2023-03-05T10:27:48.436Z,7.80
2023-03-05T10:31:57.273Z,8.00
2023-03-05T10:36:17.012Z,8.10
2023-03-05T10:40:22.960Z,8.20
2023-03-05T10:44:30.615Z,8.50
2023-03-05T10:48:39.450Z,8.80
2023-03-05T10:52:46.692Z,8.90
2023-03-05T10:56:49.532Z,8.90
2023-03-05T11:01:02.814Z,8.70
2023-03-05T11:05:24.246Z,8.60
2023-03-05T11:09:29.267Z,8.60
2023-03-05T11:13:32.855Z,8.90
2023-03-05T11:17:37.498Z,9.10
2023-03-05T11:21:41.889Z,9.20
2023-03-05T11:25:58.474Z,9.30
2023-03-05T11:30:01.374Z,9.50
2023-03-05T11:34:05.334Z,10.00
2023-03-05T11:38:17.811Z,10.30
2023-03-05T11:42:25.131Z,10.40
2023-03-05T11:46:28.456Z,10.20
2023-03-05T11:50:32.340Z,9.90
2023-03-05T11:54:41.920Z,9.70
2023-03-05T11:58:47.574Z,9.60
2023-03-05T12:02:53.525Z,9.60
2023-03-05T12:06:58.364Z,9.60
2023-03-05T12:11:05.960Z,9.80
2023-03-05T12:15:30.143Z,10.10
2023-03-05T12:19:42.776Z,10.10
2023-03-05T12:23:46.934Z,10.00
2023-03-05T12:27:51.133Z,9.80
2023-03-05T12:31:53.944Z,9.60
2023-03-05T12:36:17.128Z,9.40
2023-03-05T12:40:24.108Z,9.20
2023-03-05T12:44:28.413Z,9.00
2023-03-05T12:48:46.439Z,8.90
2023-03-05T12:52:49.374Z,8.80
2023-03-05T12:56:53.559Z,8.70
2023-03-05T13:01:01.254Z,8.60
2023-03-05T13:05:07.449Z,8.60
2023-03-05T13:09:16.977Z,8.50
2023-03-05T13:13:21.523Z,8.50
2023-03-05T13:17:36.259Z,8.40
2023-03-05T13:21:39.130Z,8.30
2023-03-05T13:25:42.093Z,8.10
2023-03-05T13:29:51.703Z,8.00
2023-03-05T13:33:57.802Z,7.90
2023-03-05T13:38:01.032Z,7.90
2023-03-05T13:42:05.275Z,7.90
2023-03-05T13:46:08.166Z,7.80
2023-03-05T13:50:23.542Z,7.80
2023-03-05T13:54:27.290Z,7.80
2023-03-05T13:58:44.431Z,7.80
2023-03-05T14:02:47.281Z,7.90
2023-03-05T14:06:53.218Z,7.90
2023-03-05T14:10:57.230Z,8.00
2023-03-05T14:15:02.228Z,8.10
2023-03-05T14:19:07.298Z,8.10
2023-03-05T14:23:26.789Z,8.20
2023-03-05T14:27:32.756Z,8.20
2023-03-05T14:31:38.609Z,8.20
2023-03-05T14:35:41.586Z,8.20
2023-03-05T14:39:46.775Z,8.10
2023-03-05T14:43:51.037Z,8.10
2023-03-05T14:47:54.658Z,8.10
2023-03-05T14:51:57.473Z,8.00
2023-03-05T14:56:00.260Z,8.00
2023-03-05T15:00:04.849Z,8.00
2023-03-05T15:04:07.662Z,8.10
2023-03-05T15:08:14.129Z,8.30
2023-03-05T15:12:17.752Z,8.40
2023-03-05T15:16:22.383Z,8.50
2023-03-05T15:20:26.824Z,8.50
2023-03-05T15:24:29.645Z,8.40
2023-03-05T15:28:32.821Z,8.30
2023-03-05T15:32:37.035Z,8.20
2023-03-05T15:36:39.858Z,8.10
2023-03-05T15:40:44.217Z,8.00
2023-03-05T15:44:47.055Z,7.90
2023-03-05T15:48:51.217Z,7.80
2023-03-05T15:52:54.052Z,7.80
2023-03-05T15:56:56.851Z,7.70
2023-03-05T16:01:00.622Z,7.60
2023-03-05T16:05:05.266Z,7.60
2023-03-05T16:09:08.077Z,7.60
2023-03-05T16:13:12.250Z,7.50
2023-03-05T16:17:15.531Z,7.50
2023-03-05T16:21:19.779Z,7.40
2023-03-05T16:25:23.030Z,7.40
2023-03-05T16:29:25.972Z,7.30
2023-03-05T16:33:28.789Z,7.20
2023-03-05T16:37:32.951Z,7.10
2023-03-05T16:41:35.839Z,7.00
2023-03-05T16:45:38.800Z,7.00
2023-03-05T16:49:41.623Z,6.90
2023-03-05T16:53:45.955Z,6.90
2023-03-05T16:57:48.717Z,6.80
2023-03-05T17:01:51.516Z,6.80
2023-03-05T17:05:54.470Z,6.70
2023-03-05T17:09:58.614Z,6.60
2023-03-05T17:14:02.371Z,6.50
2023-03-05T17:18:05.842Z,6.50
2023-03-05T17:22:09.565Z,6.40
2023-03-05T17:26:15.057Z,6.30
2023-03-05T17:30:18.150Z,6.20
2023-03-05T17:34:33.294Z,6.20
2023-03-05T17:38:38.230Z,6.10
2023-03-05T17:42:42.399Z,6.00
2023-03-05T17:46:45.224Z,5.90
2023-03-05T17:50:48.044Z,5.80
2023-03-05T17:54:53.084Z,5.70
2023-03-05T17:58:57.458Z,5.60
2023-03-05T18:03:00.448Z,5.50
2023-03-05T18:07:04.045Z,5.50
2023-03-05T18:11:06.855Z,5.40
2023-03-05T18:15:12.627Z,5.40
2023-03-05T18:19:15.574Z,5.30
2023-03-05T18:23:18.377Z,5.30
2023-03-05T18:27:22.249Z,5.30
2023-03-05T18:31:26.392Z,5.30
2023-03-05T18:35:30.079Z,5.20
2023-03-05T18:39:33.495Z,5.20
2023-03-05T18:43:36.670Z,5.20
2023-03-05T18:47:42.075Z,5.20
2023-03-05T18:51:45.747Z,5.20
2023-03-05T18:55:50.967Z,5.20
2023-03-05T18:59:54.210Z,5.20
2023-03-05T19:03:58.439Z,5.20
2023-03-05T19:08:01.596Z,5.20
2023-03-05T19:12:04.532Z,5.20
2023-03-05T19:16:08.369Z,5.10
2023-03-05T19:20:14.142Z,5.10
2023-03-05T19:24:17.275Z,5.10
2023-03-05T19:28:21.277Z,5.10
2023-03-05T19:32:24.310Z,5.10
2023-03-05T19:36:28.570Z,5.10
2023-03-05T19:40:31.474Z,5.10
2023-03-05T19:44:34.441Z,5.10
2023-03-05T19:48:38.011Z,5.10
2023-03-05T19:52:42.230Z,5.00
2023-03-05T19:56:45.843Z,5.00
2023-03-05T20:00:48.695Z,5.00
2023-03-05T20:04:51.827Z,5.00
2023-03-05T20:08:56.084Z,5.00
2023-03-05T20:12:58.953Z,5.00
2023-03-05T20:17:01.808Z,5.00
2023-03-05T20:21:04.657Z,5.00
2023-03-05T20:25:09.241Z,5.00
2023-03-05T20:29:12.408Z,5.00
2023-03-05T20:33:15.201Z,4.90
2023-03-05T20:37:18.018Z,4.90
2023-03-05T20:41:22.271Z,4.90
2023-03-05T20:45:25.207Z,4.90
2023-03-05T20:49:28.089Z,4.90
2023-03-05T20:53:30.888Z,4.90
2023-03-05T20:57:36.102Z,4.90
2023-03-05T21:01:40.560Z,4.90
2023-03-05T21:05:43.929Z,4.90
2023-03-05T21:09:48.989Z,4.80
2023-03-05T21:13:53.135Z,4.80
2023-03-05T21:17:56.262Z,4.80
2023-03-05T21:21:59.612Z,4.80
2023-03-05T21:26:04.097Z,4.70
2023-03-05T21:30:09.301Z,4.70
2023-03-05T21:34:12.352Z,4.70
2023-03-05T21:38:15.253Z,4.70
2023-03-05T21:42:18.066Z,4.70
2023-03-05T21:46:22.698Z,4.70
2023-03-05T21:50:26.158Z,4.60
2023-03-05T21:54:29.161Z,4.60
2023-03-05T21:58:32.555Z,4.60
2023-03-05T22:02:36.875Z,4.60
2023-03-05T22:06:39.690Z,4.60
2023-03-05T22:10:42.792Z,4.60
2023-03-05T22:14:45.614Z,4.60
2023-03-05T22:18:49.741Z,4.60
2023-03-05T22:22:53.199Z,4.60
2023-03-05T22:26:56.058Z,4.60
2023-03-05T22:30:59.144Z,4.60
2023-03-05T22:35:03.817Z,4.60
2023-03-05T22:39:06.615Z,4.60
2023-03-05T22:43:09.849Z,4.50
2023-03-05T22:47:12.696Z,4.50
2023-03-05T22:51:17.526Z,4.50
2023-03-05T22:55:20.445Z,4.50
2023-03-05T22:59:23.263Z,4.50
2023-03-05T23:03:26.090Z,4.50
2023-03-05T23:07:31.594Z,4.50
2023-03-05T23:11:34.401Z,4.50
2023-03-05T23:15:38.787Z,4.50
2023-03-05T23:19:41.614Z,4.50
2023-03-05T23:23:45.836Z,4.50
2023-03-05T23:27:49.035Z,4.50
2023-03-05T23:31:54.728Z,4.50
2023-03-05T23:35:58.719Z,4.50
2023-03-05T23:40:02.940Z,4.50
2023-03-05T23:44:05.901Z,4.50
2023-03-05T23:48:08.775Z,4.50
2023-03-05T23:52:12.148Z,4.50
2023-03-05T23:56:16.324Z,4.50
